USTRANSCOM 7517


EGUN
RAF Mildenhall
Mildenhall, GB
ETAR
Ramstein Air Force Base
Ramstein, DE

Activity Log

Date Flight Route Aircraft Duration
No Flights Yet

Route Details

Aircraft Information
Primary: Boeing 767-300BDSF
Backup: Boeing 757-200SF
Route Data
Distance: 322nm
Sched. Duration: 1h 00m
Avg. Duration: 0h 00m (-100m)
Times Flown: 0
Recm'd Route: Not Available
Planned Altitude: 33,000ft
Origin Wx: EGUN 281955Z 21015G21KT 9999 FEW065 BKN100 11/08 A2934 RMK AO2A SLPNO WND DATA ESTMD ALSTG ESTMD RVRNO
Dest. Wx: ETAR 281956Z AUTO 21010KT 9999 SCT050 07/M02 A2986 RMK AO2 SLP124 T00681019 FZRANO $
Notes: USTRANSCOM CONTRACT FLIGHT

Financial History
Total Freight: 0lbs
Average Load: 0lbs/flt
Fuel Used: 0lbs
Avg. Fuel Used: 0lbs/flt
Fuel Expense: $0
Avg. Fuel Expense: $0
Avg. Fuel Cost: $0/lbs
Total Gross Income: $0
Pilot Pay: $0
Total Expenses: $0
Total Revenue: $0
Average Revenue: $0